Richvale, Pennsylvania
Current Conditions -  °F | °C
As of 5:53 AM on Saturday 20 Dec 2014 (Local Time) from KAOO Reporting Station
Clear Clear  
Wind Chill: 23°   Ceiling: Unl
Heat Index: 23°   Visibility: 10mi
Dew Point: 18°   Wind: 3mph
Humidity: 81%   Direction: 360°N
Pressure: 30.21"   Gusts: NA
Location:  40.2561°N, 77.7747°W
Report Text: KAOO 201053Z AUTO 36003KT 10SM CLR M05/M08 A3021 RMK AO2 SLP250 T10501078
Loading
Personal Weather Stations






























Interactive Weather Map New forecast layout! Learn more

10-Day Weather Forecast

Advertisements
Track Severe Weather on mobile